Time;durP1;ratioP1;P1;durP2;ratioP2;P2;SDS_P1;SDS_P2;PMS_P1;PMS_P2;Temp;Humidity;BMP_temperature;BMP_pressure;BME280_temperature;BME280_humidity;BME280_pressure;Samples;Min_cycle;Max_cycle;Signal;HPM_P1;HPM_P2
2023/10/14 00:02:08;;;;;;;18.83;11.77;;;;;;;;;;6287230;22;19902;-65
2023/10/14 00:04:33;;;;;;;18.55;11.40;;;;;;;;;;6258153;22;20019;-66
2023/10/14 00:07:05;;;;;;;18.38;12.25;;;;;;;;;;6288766;22;20422;-65
2023/10/14 00:09:37;;;;;;;20.40;11.90;;;;;;;;;;6259385;22;20652;-65
2023/10/14 00:12:12;;;;;;;14.85;11.57;;;;;;;;;;6287648;22;20067;-65
2023/10/14 00:14:38;;;;;;;16.95;11.20;;;;;;;;;;6287524;22;20093;-66
2023/10/14 00:17:10;;;;;;;17.30;12.27;;;;;;;;;;6285876;22;20627;-65
2023/10/14 00:19:36;;;;;;;19.42;12.43;;;;;;;;;;6288589;22;20240;-64
2023/10/14 00:22:02;;;;;;;18.97;12.50;;;;;;;;;;6259572;22;20034;-66
2023/10/14 00:24:27;;;;;;;21.05;12.52;;;;;;;;;;6284047;22;20003;-65
2023/10/14 00:26:58;;;;;;;18.40;12.97;;;;;;;;;;6288080;22;19995;-65
2023/10/14 00:29:24;;;;;;;19.05;12.57;;;;;;;;;;6292442;22;20304;-65
2023/10/14 00:31:50;;;;;;;19.95;12.48;;;;;;;;;;6256815;22;20094;-63
2023/10/14 00:34:18;;;;;;;16.63;12.43;;;;;;;;;;6288940;22;20484;-65
2023/10/14 00:36:43;;;;;;;19.67;12.88;;;;;;;;;;6287772;22;19999;-65
2023/10/14 00:39:27;;;;;;;16.27;11.93;;;;;;;;;;6288393;22;20003;-65
2023/10/14 00:41:53;;;;;;;19.42;12.13;;;;;;;;;;6284395;22;20002;-65
2023/10/14 00:44:24;;;;;;;21.48;12.30;;;;;;;;;;6287542;22;20622;-66
2023/10/14 00:46:49;;;;;;;17.45;12.43;;;;;;;;;;6288228;22;20006;-65
2023/10/14 00:49:22;;;;;;;17.02;12.60;;;;;;;;;;6289786;22;19996;-66
2023/10/14 00:51:49;;;;;;;17.27;12.48;;;;;;;;;;6262654;22;20014;-64
2023/10/14 00:54:27;;;;;;;20.90;12.93;;;;;;;;;;6290872;22;19999;-65
2023/10/14 00:56:52;;;;;;;17.67;12.18;;;;;;;;;;6290861;22;19995;-65
2023/10/14 00:59:20;;;;;;;19.90;12.25;;;;;;;;;;6286642;22;20002;-65
2023/10/14 01:01:58;;;;;;;16.95;12.38;;;;;;;;;;6285843;22;19995;-65
2023/10/14 01:04:32;;;;;;;18.95;12.18;;;;;;;;;;6287930;22;19995;-65
2023/10/14 01:09:51;;;;;;;16.83;12.27;;;;;;;;;;6298976;22;20762;-65
2023/10/14 01:12:16;;;;;;;16.27;11.25;;;;;;;;;;6263171;22;20000;-64
2023/10/14 01:14:52;;;;;;;20.37;12.07;;;;;;;;;;6264127;22;20088;-65
2023/10/14 01:17:30;;;;;;;17.33;11.73;;;;;;;;;;6258534;22;20595;-65
2023/10/14 01:20:25;;;;;;;20.48;11.82;;;;;;;;;;6263065;22;20034;-65
2023/10/14 01:23:12;;;;;;;17.17;11.68;;;;;;;;;;6287530;22;19999;-65
2023/10/14 01:25:33;;;;;;;16.58;11.30;;;;;;;;;;6286577;22;20019;-66
2023/10/14 01:27:59;;;;;;;17.27;12.45;;;;;;;;;;6288855;22;20642;-64
2023/10/14 01:30:37;;;;;;;15.77;11.23;;;;;;;;;;6286870;22;20063;-66
2023/10/14 01:33:15;;;;;;;21.70;12.40;;;;;;;;;;6286150;22;20658;-65
2023/10/14 01:35:45;;;;;;;18.63;12.13;;;;;;;;;;6258347;22;20244;-65
2023/10/14 01:38:10;;;;;;;;;;;;;;;;;;6291661;22;20097;-65
2023/10/14 01:40:49;;;;;;;19.70;12.07;;;;;;;;;;6261575;22;20024;-65
2023/10/14 01:43:15;;;;;;;18.85;12.57;;;;;;;;;;6289618;22;20003;-65
2023/10/14 01:46:09;;;;;;;;;;;;;;;;;;;;;
2023/10/14 01:48:21;;;;;;;18.08;12.15;;;;;;;;;;6287271;22;20003;-66
2023/10/14 01:50:54;;;;;;;17.60;12.50;;;;;;;;;;6290262;22;19991;-66
2023/10/14 01:53:27;;;;;;;20.80;13.23;;;;;;;;;;6286215;22;20003;-66
2023/10/14 01:55:53;;;;;;;19.75;13.18;;;;;;;;;;6287738;22;19995;-64
2023/10/14 01:58:22;;;;;;;18.88;12.98;;;;;;;;;;6260065;22;19995;-65
2023/10/14 02:00:56;;;;;;;20.38;13.02;;;;;;;;;;6289505;22;19999;-65
2023/10/14 02:03:22;;;;;;;18.98;12.15;;;;;;;;;;6291641;22;20382;-65
2023/10/14 02:05:51;;;;;;;17.52;12.63;;;;;;;;;;6255092;22;20501;-65
2023/10/14 02:08:21;;;;;;;20.67;12.40;;;;;;;;;;6288307;22;20006;-65
2023/10/14 02:10:47;;;;;;;20.65;12.70;;;;;;;;;;6289861;22;20043;-65
2023/10/14 02:13:14;;;;;;;19.50;12.50;;;;;;;;;;6287908;22;20027;-65
2023/10/14 02:15:39;;;;;;;18.40;12.05;;;;;;;;;;6291342;22;20324;-65
2023/10/14 02:18:04;;;;;;;17.75;12.02;;;;;;;;;;6285518;22;20002;-65
2023/10/14 02:20:37;;;;;;;19.10;12.07;;;;;;;;;;6289373;22;20009;-65
2023/10/14 02:23:04;;;;;;;19.95;12.43;;;;;;;;;;6259994;22;20006;-65
2023/10/14 02:25:33;;;;;;;16.50;11.82;;;;;;;;;;6292196;22;19995;-65
2023/10/14 02:27:58;;;;;;;16.40;10.90;;;;;;;;;;6287516;22;19995;-65
2023/10/14 02:30:23;;;;;;;18.17;11.65;;;;;;;;;;6261311;22;20082;-65
2023/10/14 02:32:48;;;;;;;17.33;12.00;;;;;;;;;;6259246;22;19999;-65
2023/10/14 02:35:15;;;;;;;16.83;12.17;;;;;;;;;;6282896;22;20002;-66
2023/10/14 02:37:41;;;;;;;14.73;11.07;;;;;;;;;;6289149;22;20452;-65
2023/10/14 02:40:10;;;;;;;16.90;12.10;;;;;;;;;;6260128;22;20006;-65
2023/10/14 02:42:36;;;;;;;;;;;;;;;;;;6262277;22;19999;-65
2023/10/14 02:45:04;;;;;;;16.90;11.37;;;;;;;;;;6254203;22;19922;-66
2023/10/14 02:47:34;;;;;;;15.82;11.02;;;;;;;;;;6257638;22;20451;-65
2023/10/14 02:50:08;;;;;;;18.20;11.25;;;;;;;;;;6255885;22;20000;-66
2023/10/14 02:52:38;;;;;;;17.52;11.02;;;;;;;;;;6259084;22;20003;-66
2023/10/14 02:55:25;;;;;;;16.63;12.00;;;;;;;;;;6257509;22;20565;-65
2023/10/14 02:57:53;;;;;;;17.65;12.48;;;;;;;;;;6258459;22;20114;-66
2023/10/14 03:00:29;;;;;;;16.55;12.15;;;;;;;;;;6256189;22;20000;-65
2023/10/14 03:02:55;;;;;;;16.20;12.13;;;;;;;;;;6255756;22;20007;-66
2023/10/14 03:05:35;;;;;;;18.08;12.00;;;;;;;;;;6255622;22;20056;-65
2023/10/14 03:08:10;;;;;;;15.88;12.77;;;;;;;;;;6255018;22;20019;-65
2023/10/14 03:10:39;;;;;;;17.77;12.55;;;;;;;;;;6255929;22;20045;-65
2023/10/14 03:13:05;;;;;;;18.20;11.68;;;;;;;;;;6254750;22;20023;-65
2023/10/14 03:15:32;;;;;;;17.65;11.75;;;;;;;;;;6255940;22;20062;-68
2023/10/14 03:18:01;;;;;;;16.80;11.88;;;;;;;;;;6255357;22;20503;-65
2023/10/14 03:20:39;;;;;;;17.92;12.52;;;;;;;;;;6254664;22;20006;-66
2023/10/14 03:23:18;;;;;;;20.23;12.77;;;;;;;;;;6259114;22;19999;-65
2023/10/14 03:25:49;;;;;;;21.88;12.95;;;;;;;;;;6254630;22;20061;-66
2023/10/14 03:28:16;;;;;;;18.55;12.40;;;;;;;;;;6256781;22;19995;-65
2023/10/14 03:30:46;;;;;;;18.75;12.48;;;;;;;;;;6254959;22;19999;-65
2023/10/14 03:33:20;;;;;;;20.00;12.15;;;;;;;;;;6256882;22;20091;-66
2023/10/14 03:35:54;;;;;;;17.25;11.88;;;;;;;;;;6256746;22;20007;-66
2023/10/14 03:38:25;;;;;;;17.65;12.32;;;;;;;;;;6254143;22;20075;-65
2023/10/14 03:41:03;;;;;;;17.55;12.43;;;;;;;;;;6256520;22;20027;-65
2023/10/14 03:43:28;;;;;;;23.90;12.32;;;;;;;;;;6266875;22;20754;-65
2023/10/14 03:46:02;;;;;;;17.63;11.95;;;;;;;;;;6255109;22;20027;-65
2023/10/14 03:48:30;;;;;;;17.45;11.93;;;;;;;;;;6289080;22;20751;-65
2023/10/14 03:51:02;;;;;;;18.63;12.10;;;;;;;;;;6260548;22;20698;-66
2023/10/14 03:53:34;;;;;;;20.60;12.50;;;;;;;;;;6261671;22;20045;-65
2023/10/14 03:56:03;;;;;;;21.67;12.18;;;;;;;;;;6289926;22;19999;-66
2023/10/14 03:58:32;;;;;;;17.42;12.00;;;;;;;;;;6286903;22;20056;-65
2023/10/14 04:00:59;;;;;;;18.00;11.20;;;;;;;;;;6263203;22;20003;-65
2023/10/14 04:03:39;;;;;;;17.58;12.05;;;;;;;;;;6262423;22;20427;-65
2023/10/14 04:06:08;;;;;;;20.20;11.77;;;;;;;;;;6291913;22;20443;-65
2023/10/14 04:08:47;;;;;;;17.63;11.10;;;;;;;;;;6258018;22;20710;-63
2023/10/14 04:11:16;;;;;;;16.27;11.80;;;;;;;;;;6261341;22;20031;-65
2023/10/14 04:14:22;;;;;;;16.45;10.80;;;;;;;;;;6289216;22;20464;-65
2023/10/14 04:22:00;;;;;;;19.05;12.10;;;;;;;;;;6297889;22;20003;-66
2023/10/14 04:27:16;;;;;;;20.42;12.13;;;;;;;;;;6301530;22;20068;-65
2023/10/14 04:29:58;;;;;;;18.55;12.68;;;;;;;;;;6289492;22;20007;-65
2023/10/14 04:32:41;;;;;;;18.90;11.82;;;;;;;;;;6291290;22;19995;-65
2023/10/14 04:35:12;;;;;;;17.05;12.18;;;;;;;;;;6289883;22;20017;-65
2023/10/14 04:37:52;;;;;;;17.65;11.43;;;;;;;;;;6289487;22;20061;-64
2023/10/14 04:46:00;;;;;;;19.58;12.55;;;;;;;;;;6300150;22;20021;-65
2023/10/14 04:48:28;;;;;;;17.98;11.30;;;;;;;;;;6291746;22;20019;-66
2023/10/14 04:50:57;;;;;;;17.17;11.18;;;;;;;;;;6288752;22;20001;-65
2023/10/14 04:53:26;;;;;;;16.60;12.45;;;;;;;;;;6292379;22;20003;-66
2023/10/14 04:55:52;;;;;;;17.92;13.02;;;;;;;;;;6262349;22;20313;-66
2023/10/14 04:58:24;;;;;;;21.27;12.23;;;;;;;;;;6290508;22;20078;-66
2023/10/14 05:00:49;;;;;;;17.83;11.90;;;;;;;;;;6284256;22;19995;-65
2023/10/14 05:03:19;;;;;;;17.08;11.65;;;;;;;;;;6260123;22;20010;-66
2023/10/14 05:06:14;;;;;;;18.60;12.75;;;;;;;;;;6261906;22;20003;-65
2023/10/14 05:08:51;;;;;;;17.70;12.23;;;;;;;;;;6257027;22;20031;-66
2023/10/14 05:11:19;;;;;;;16.88;11.77;;;;;;;;;;6288963;22;19999;-66
2023/10/14 05:16:33;;;;;;;17.83;11.57;;;;;;;;;;6286671;22;20060;-66
2023/10/14 05:19:11;;;;;;;17.38;12.52;;;;;;;;;;6287805;22;19999;-65
2023/10/14 05:21:42;;;;;;;20.10;11.98;;;;;;;;;;6258588;22;19995;-65
2023/10/14 05:24:10;;;;;;;18.30;12.10;;;;;;;;;;6289636;22;20003;-65
2023/10/14 05:26:58;;;;;;;19.95;12.35;;;;;;;;;;6255287;22;20006;-65
2023/10/14 05:29:24;;;;;;;19.38;12.88;;;;;;;;;;6292091;22;20091;-66
2023/10/14 05:31:52;;;;;;;19.52;12.50;;;;;;;;;;6289357;22;20074;-65
2023/10/14 05:34:21;;;;;;;18.75;13.23;;;;;;;;;;6292179;22;20003;-66
2023/10/14 05:36:52;;;;;;;19.42;12.45;;;;;;;;;;6262293;22;20007;-66
2023/10/14 05:39:17;;;;;;;20.88;11.30;;;;;;;;;;6284761;22;20080;-66
2023/10/14 05:41:43;;;;;;;20.30;12.40;;;;;;;;;;6265825;22;20033;-67
2023/10/14 05:44:14;;;;;;;19.15;12.20;;;;;;;;;;6289822;22;20112;-65
2023/10/14 05:46:41;;;;;;;21.45;12.68;;;;;;;;;;6292589;22;19999;-66
2023/10/14 05:49:06;;;;;;;27.17;13.02;;;;;;;;;;6289961;22;19992;-66
2023/10/14 05:51:32;;;;;;;24.38;12.88;;;;;;;;;;6286813;22;19999;-66
2023/10/14 05:53:57;;;;;;;22.73;12.82;;;;;;;;;;6290478;22;20034;-66
2023/10/14 05:56:22;;;;;;;28.38;12.40;;;;;;;;;;6259347;22;20175;-64
2023/10/14 05:58:48;;;;;;;21.15;11.80;;;;;;;;;;6290896;22;19999;-66
2023/10/14 06:01:16;;;;;;;23.48;12.88;;;;;;;;;;6260953;22;20003;-65
2023/10/14 06:03:41;;;;;;;21.17;13.38;;;;;;;;;;6261713;22;20549;-66
2023/10/14 06:06:10;;;;;;;19.60;12.32;;;;;;;;;;6259838;22;19995;-66
2023/10/14 06:08:38;;;;;;;20.93;12.67;;;;;;;;;;6288461;22;20088;-66
2023/10/14 06:11:07;;;;;;;20.75;11.85;;;;;;;;;;6285185;22;20094;-66
2023/10/14 06:13:33;;;;;;;24.60;12.57;;;;;;;;;;6261249;22;20038;-66
2023/10/14 06:16:04;;;;;;;22.52;12.98;;;;;;;;;;6259822;22;20112;-68
2023/10/14 06:18:30;;;;;;;18.90;12.40;;;;;;;;;;6261227;22;20332;-66
2023/10/14 06:20:59;;;;;;;19.90;12.15;;;;;;;;;;6289605;22;19999;-66
2023/10/14 06:23:30;;;;;;;20.60;12.27;;;;;;;;;;6292340;22;20444;-66
2023/10/14 06:25:55;;;;;;;18.50;12.07;;;;;;;;;;6259340;22;20003;-65
2023/10/14 06:28:21;;;;;;;19.08;12.68;;;;;;;;;;6290210;22;20438;-66
2023/10/14 06:30:46;;;;;;;18.15;12.93;;;;;;;;;;6285974;22;20023;-65
2023/10/14 06:33:12;;;;;;;17.47;11.97;;;;;;;;;;6291023;22;19995;-66
2023/10/14 06:35:42;;;;;;;18.55;13.07;;;;;;;;;;6261256;22;20291;-66
2023/10/14 06:38:09;;;;;;;18.17;12.40;;;;;;;;;;6262933;22;20519;-66
2023/10/14 06:40:37;;;;;;;19.15;12.95;;;;;;;;;;6286735;22;19999;-65
2023/10/14 06:43:07;;;;;;;18.08;12.48;;;;;;;;;;6258955;22;20027;-66
2023/10/14 06:45:36;;;;;;;19.60;13.00;;;;;;;;;;6261930;22;20046;-66
2023/10/14 06:48:10;;;;;;;20.10;13.70;;;;;;;;;;6261198;22;20027;-65
2023/10/14 06:50:42;;;;;;;19.67;13.52;;;;;;;;;;6292383;22;20066;-65
2023/10/14 06:53:11;;;;;;;22.42;14.68;;;;;;;;;;6286803;22;20006;-65
2023/10/14 06:55:42;;;;;;;23.05;13.98;;;;;;;;;;6291605;22;20057;-65
2023/10/14 06:58:08;;;;;;;20.48;14.15;;;;;;;;;;6260302;22;20039;-65
2023/10/14 07:00:37;;;;;;;18.85;13.15;;;;;;;;;;6263724;22;20003;-65
2023/10/14 07:03:02;;;;;;;23.08;14.15;;;;;;;;;;6262015;22;20605;-66
2023/10/14 07:05:30;;;;;;;23.67;13.43;;;;;;;;;;6288544;22;20098;-65
2023/10/14 07:07:58;;;;;;;26.70;14.52;;;;;;;;;;6290871;22;20070;-65
2023/10/14 07:10:33;;;;;;;25.08;13.52;;;;;;;;;;6260134;22;19999;-65
2023/10/14 07:13:01;;;;;;;20.35;13.68;;;;;;;;;;6291869;22;20002;-65
2023/10/14 07:15:33;;;;;;;24.33;14.05;;;;;;;;;;6287912;22;20708;-65
2023/10/14 07:17:58;;;;;;;22.60;13.40;;;;;;;;;;6290528;22;20025;-65
2023/10/14 07:20:25;;;;;;;21.52;12.90;;;;;;;;;;6287390;22;19999;-65
2023/10/14 07:22:50;;;;;;;18.10;12.68;;;;;;;;;;6290008;22;19995;-65
2023/10/14 07:25:16;;;;;;;24.70;14.05;;;;;;;;;;6287321;22;20014;-65
2023/10/14 07:27:43;;;;;;;20.55;13.52;;;;;;;;;;6256665;22;20659;-65
2023/10/14 07:30:15;;;;;;;19.88;12.70;;;;;;;;;;6258859;22;20003;-64
2023/10/14 07:32:45;;;;;;;20.50;13.13;;;;;;;;;;6284856;22;20053;-65
2023/10/14 07:35:11;;;;;;;19.88;14.20;;;;;;;;;;6261533;22;20011;-65
2023/10/14 07:37:44;;;;;;;23.98;13.48;;;;;;;;;;6257742;22;20098;-65
2023/10/14 07:40:22;;;;;;;19.20;13.38;;;;;;;;;;6260966;22;19999;-65
2023/10/14 07:42:52;;;;;;;20.40;13.63;;;;;;;;;;6259560;22;20708;-65
2023/10/14 07:45:19;;;;;;;21.10;13.75;;;;;;;;;;6289200;22;20639;-65
2023/10/14 07:47:46;;;;;;;19.70;13.65;;;;;;;;;;6259230;22;20695;-67
2023/10/14 07:50:11;;;;;;;19.33;13.35;;;;;;;;;;6286495;22;19999;-65
2023/10/14 07:52:37;;;;;;;22.40;13.90;;;;;;;;;;6260940;22;20045;-65
2023/10/14 07:55:04;;;;;;;18.25;12.85;;;;;;;;;;6284644;22;20002;-65
2023/10/14 07:57:31;;;;;;;19.08;13.45;;;;;;;;;;6253937;22;20329;-65
2023/10/14 08:00:12;;;;;;;16.33;12.00;;;;;;;;;;6282724;22;20052;-62
2023/10/14 08:02:37;;;;;;;16.80;12.82;;;;;;;;;;6282040;22;20001;-65
2023/10/14 08:05:05;;;;;;;19.00;13.80;;;;;;;;;;6257827;22;20007;-64
2023/10/14 08:07:30;;;;;;;17.33;13.57;;;;;;;;;;6279699;22;20216;-65
2023/10/14 08:09:56;;;;;;;26.02;13.75;;;;;;;;;;6284061;22;20000;-65
2023/10/14 08:12:21;;;;;;;27.63;14.63;;;;;;;;;;6253253;22;20003;-65
2023/10/14 08:14:46;;;;;;;18.93;12.60;;;;;;;;;;6256961;22;20280;-65
2023/10/14 08:17:12;;;;;;;18.27;12.73;;;;;;;;;;6255274;22;20003;-66
2023/10/14 08:19:43;;;;;;;14.85;11.07;;;;;;;;;;6255974;22;20122;-66
2023/10/14 08:22:14;;;;;;;18.15;11.77;;;;;;;;;;6282395;22;19996;-65
2023/10/14 08:24:39;;;;;;;18.38;12.32;;;;;;;;;;6281457;22;19999;-66
2023/10/14 08:27:04;;;;;;;18.67;12.10;;;;;;;;;;6256697;22;20009;-65
2023/10/14 08:29:32;;;;;;;18.25;11.95;;;;;;;;;;6283100;22;20277;-66
2023/10/14 08:32:00;;;;;;;16.92;11.63;;;;;;;;;;6285165;22;20007;-66
2023/10/14 08:34:25;;;;;;;16.80;11.73;;;;;;;;;;6253431;22;20400;-65
2023/10/14 08:36:50;;;;;;;18.65;12.35;;;;;;;;;;6283541;22;20003;-66
2023/10/14 08:39:16;;;;;;;14.73;11.03;;;;;;;;;;6254773;22;19999;-66
2023/10/14 08:41:45;;;;;;;15.23;10.37;;;;;;;;;;6256943;22;20106;-65
2023/10/14 08:44:10;;;;;;;18.42;10.88;;;;;;;;;;6256923;22;20071;-66
2023/10/14 08:46:40;;;;;;;15.80;9.90;;;;;;;;;;6254109;22;20377;-66
2023/10/14 08:49:12;;;;;;;14.90;9.98;;;;;;;;;;6286181;22;20041;-66
2023/10/14 08:51:39;;;;;;;15.18;10.02;;;;;;;;;;6253623;22;19999;-65
2023/10/14 08:54:10;;;;;;;15.90;10.20;;;;;;;;;;6259014;22;20009;-65
2023/10/14 08:56:36;;;;;;;19.02;10.75;;;;;;;;;;6282970;22;20027;-65
2023/10/14 08:59:03;;;;;;;13.55;10.00;;;;;;;;;;6254603;22;20456;-65
2023/10/14 09:01:31;;;;;;;15.48;10.45;;;;;;;;;;6285914;22;20056;-66
2023/10/14 09:03:59;;;;;;;15.82;10.27;;;;;;;;;;6256113;22;20031;-65
2023/10/14 09:06:25;;;;;;;15.43;10.90;;;;;;;;;;6286634;22;20021;-66
2023/10/14 09:08:52;;;;;;;14.73;10.05;;;;;;;;;;6282069;22;19996;-65
2023/10/14 09:11:27;;;;;;;15.52;9.70;;;;;;;;;;6286540;22;20003;-66
2023/10/14 09:14:03;;;;;;;16.08;10.43;;;;;;;;;;6281387;22;20042;-65
2023/10/14 09:16:30;;;;;;;15.23;10.00;;;;;;;;;;6283364;22;20003;-65
2023/10/14 09:19:00;;;;;;;16.15;9.80;;;;;;;;;;6283797;22;20006;-65
2023/10/14 09:21:25;;;;;;;14.88;10.43;;;;;;;;;;6256575;22;19995;-66
2023/10/14 09:23:51;;;;;;;16.45;10.95;;;;;;;;;;6285667;22;20053;-64
2023/10/14 09:26:18;;;;;;;16.08;10.45;;;;;;;;;;6282470;22;19995;-64
2023/10/14 09:28:44;;;;;;;18.58;10.75;;;;;;;;;;6286258;22;20518;-64
2023/10/14 09:31:10;;;;;;;17.40;11.45;;;;;;;;;;6282599;22;19995;-65
2023/10/14 09:33:41;;;;;;;16.75;10.32;;;;;;;;;;6286106;22;20049;-63
2023/10/14 09:36:14;;;;;;;15.40;9.95;;;;;;;;;;6281544;22;20061;-65
2023/10/14 09:38:40;;;;;;;15.50;10.45;;;;;;;;;;6256196;22;19999;-64
2023/10/14 09:41:07;;;;;;;15.10;10.57;;;;;;;;;;6253683;22;20002;-65
2023/10/14 09:43:33;;;;;;;15.98;10.02;;;;;;;;;;6284704;22;20022;-67
2023/10/14 09:45:59;;;;;;;15.43;10.15;;;;;;;;;;6257137;22;20025;-65
2023/10/14 09:48:29;;;;;;;13.95;9.88;;;;;;;;;;6281139;22;20293;-64
2023/10/14 09:50:57;;;;;;;;;;;;;;;;;;6257297;22;20003;-63
2023/10/14 09:53:26;;;;;;;15.05;9.52;;;;;;;;;;6254572;22;20040;-63
2023/10/14 09:55:52;;;;;;;15.85;10.38;;;;;;;;;;6285486;22;20034;-65
2023/10/14 09:58:25;;;;;;;13.93;9.50;;;;;;;;;;6283262;22;20064;-63
2023/10/14 10:00:53;;;;;;;13.50;9.38;;;;;;;;;;6283712;22;20588;-62
2023/10/14 10:03:22;;;;;;;14.23;9.75;;;;;;;;;;6283929;22;20048;-63
2023/10/14 10:06:10;;;;;;;17.50;9.93;;;;;;;;;;6256936;22;20480;-65
2023/10/14 10:08:55;;;;;;;15.52;9.43;;;;;;;;;;6256207;22;20049;-65
2023/10/14 10:11:23;;;;;;;13.45;9.68;;;;;;;;;;6256957;22;20003;-64
2023/10/14 10:13:54;;;;;;;14.27;9.98;;;;;;;;;;6254666;22;20062;-65
2023/10/14 10:16:22;;;;;;;15.95;9.88;;;;;;;;;;6285360;22;20542;-65
2023/10/14 10:18:49;;;;;;;14.65;9.35;;;;;;;;;;6281793;22;19999;-65
2023/10/14 10:21:16;;;;;;;13.57;9.48;;;;;;;;;;6285140;22;20146;-64
2023/10/14 10:23:44;;;;;;;13.30;9.05;;;;;;;;;;6283030;22;20005;-65
2023/10/14 10:26:14;;;;;;;13.27;9.20;;;;;;;;;;6257355;22;20087;-64
2023/10/14 10:28:39;;;;;;;12.35;9.07;;;;;;;;;;6252379;22;20060;-65
2023/10/14 10:31:09;;;;;;;15.13;8.88;;;;;;;;;;6256551;22;20040;-65
2023/10/14 10:33:47;;;;;;;14.55;8.60;;;;;;;;;;6256789;22;20007;-64
2023/10/14 10:36:13;;;;;;;13.15;9.35;;;;;;;;;;6282884;22;20011;-66
2023/10/14 10:38:41;;;;;;;12.90;8.35;;;;;;;;;;6284982;22;20003;-65
2023/10/14 10:41:24;;;;;;;13.55;8.45;;;;;;;;;;6282364;22;19998;-65
2023/10/14 10:43:49;;;;;;;12.60;8.57;;;;;;;;;;6285881;22;20026;-65
2023/10/14 10:46:30;;;;;;;12.77;8.15;;;;;;;;;;6252113;22;20003;-65
2023/10/14 10:48:56;;;;;;;12.18;7.80;;;;;;;;;;6282985;22;19991;-65
2023/10/14 10:51:22;;;;;;;13.05;9.18;;;;;;;;;;6256527;22;20010;-65
2023/10/14 10:53:52;;;;;;;12.40;8.02;;;;;;;;;;6256042;22;20518;-65
2023/10/14 10:56:19;;;;;;;16.15;8.55;;;;;;;;;;6283568;22;19999;-65
2023/10/14 10:58:44;;;;;;;11.05;7.78;;;;;;;;;;6255077;22;19999;-66
2023/10/14 11:01:11;;;;;;;10.95;7.15;;;;;;;;;;6281838;22;20021;-62
2023/10/14 11:03:36;;;;;;;13.60;7.95;;;;;;;;;;6281739;22;20443;-65
2023/10/14 11:06:02;;;;;;;9.40;7.13;;;;;;;;;;6255463;22;20080;-65
2023/10/14 11:08:27;;;;;;;11.85;7.32;;;;;;;;;;6255065;22;20014;-65
2023/10/14 11:10:53;;;;;;;10.30;6.82;;;;;;;;;;6282072;22;19995;-64
2023/10/14 11:13:18;;;;;;;11.70;7.43;;;;;;;;;;6254172;22;20085;-61
2023/10/14 11:15:45;;;;;;;13.68;7.70;;;;;;;;;;6254804;22;20003;-64
2023/10/14 11:18:10;;;;;;;11.20;6.82;;;;;;;;;;6253238;22;19995;-64
2023/10/14 11:20:40;;;;;;;12.60;7.17;;;;;;;;;;6253378;22;20006;-64
2023/10/14 11:23:08;;;;;;;11.30;8.00;;;;;;;;;;6281587;22;20381;-64
2023/10/14 11:25:49;;;;;;;11.10;7.78;;;;;;;;;;6255223;22;20003;-64
2023/10/14 11:28:20;;;;;;;12.93;7.32;;;;;;;;;;6283011;22;20002;-64
2023/10/14 11:30:46;;;;;;;10.35;6.75;;;;;;;;;;6281531;22;20573;-64
2023/10/14 11:33:17;;;;;;;10.95;7.13;;;;;;;;;;6280080;22;20003;-64
2023/10/14 11:35:49;;;;;;;9.52;6.82;;;;;;;;;;6284805;22;20087;-64
2023/10/14 11:38:14;;;;;;;11.25;6.32;;;;;;;;;;6280495;22;19995;-65
2023/10/14 11:40:45;;;;;;;11.85;7.45;;;;;;;;;;6256201;22;20037;-66
2023/10/14 11:43:11;;;;;;;11.35;7.05;;;;;;;;;;6283091;22;20417;-65
2023/10/14 11:45:43;;;;;;;10.45;6.80;;;;;;;;;;6254897;22;20015;-65
2023/10/14 11:48:18;;;;;;;14.70;6.85;;;;;;;;;;6283014;22;20037;-65
2023/10/14 11:50:47;;;;;;;12.45;6.78;;;;;;;;;;6283207;22;20027;-64
2023/10/14 11:53:13;;;;;;;9.80;6.75;;;;;;;;;;6281853;22;19999;-65
2023/10/14 11:55:39;;;;;;;11.90;6.55;;;;;;;;;;6256539;22;20718;-65
2023/10/14 11:58:04;;;;;;;13.40;7.60;;;;;;;;;;6282925;22;19995;-65
2023/10/14 12:00:32;;;;;;;13.18;7.35;;;;;;;;;;6282142;22;20302;-65
2023/10/14 12:02:57;;;;;;;16.00;8.23;;;;;;;;;;6253228;22;20689;-64
2023/10/14 12:05:22;;;;;;;15.57;7.33;;;;;;;;;;6255351;22;20034;-65
2023/10/14 12:07:48;;;;;;;14.70;6.93;;;;;;;;;;6281914;22;20773;-64
2023/10/14 12:10:13;;;;;;;12.18;8.20;;;;;;;;;;6255166;22;20003;-65
2023/10/14 12:12:39;;;;;;;19.80;8.52;;;;;;;;;;6283808;22;19991;-65
2023/10/14 12:15:08;;;;;;;17.77;8.80;;;;;;;;;;6254247;22;20229;-65
2023/10/14 12:17:36;;;;;;;15.45;7.63;;;;;;;;;;6257576;22;20000;-65
2023/10/14 12:20:06;;;;;;;15.55;7.05;;;;;;;;;;6285237;22;20692;-65
2023/10/14 12:22:33;;;;;;;;;;;;;;;;;;6261008;22;19999;-65
2023/10/14 12:24:59;;;;;;;13.13;7.43;;;;;;;;;;6284465;22;19910;-65
2023/10/14 12:27:28;;;;;;;18.38;8.00;;;;;;;;;;6258684;22;20324;-65
2023/10/14 12:29:54;;;;;;;12.18;7.55;;;;;;;;;;6285933;22;20006;-65
2023/10/14 12:32:19;;;;;;;17.98;7.18;;;;;;;;;;6284975;22;19999;-64
2023/10/14 12:34:46;;;;;;;13.27;7.23;;;;;;;;;;6259079;22;20843;-66
2023/10/14 12:37:18;;;;;;;13.65;7.55;;;;;;;;;;6286496;22;20026;-66
2023/10/14 12:39:49;;;;;;;10.98;7.40;;;;;;;;;;6286546;22;20003;-65
2023/10/14 12:42:16;;;;;;;10.77;7.00;;;;;;;;;;6285335;22;20448;-67
2023/10/14 12:44:42;;;;;;;12.00;7.20;;;;;;;;;;6284800;22;20022;-66
2023/10/14 12:47:14;;;;;;;14.20;8.17;;;;;;;;;;6287087;22;20384;-65
2023/10/14 12:49:39;;;;;;;13.27;7.82;;;;;;;;;;6284035;22;20224;-66
2023/10/14 12:52:15;;;;;;;13.07;7.25;;;;;;;;;;6258738;22;20007;-66
2023/10/14 12:54:40;;;;;;;16.27;7.60;;;;;;;;;;6284384;22;20007;-65
2023/10/14 12:57:08;;;;;;;13.20;7.85;;;;;;;;;;6283610;22;20472;-65
2023/10/14 12:59:40;;;;;;;13.18;7.85;;;;;;;;;;6286918;22;20444;-65
2023/10/14 13:02:08;;;;;;;12.70;7.38;;;;;;;;;;6285798;22;20049;-66
2023/10/14 13:04:34;;;;;;;12.95;7.75;;;;;;;;;;6259314;22;20031;-65
2023/10/14 13:06:59;;;;;;;11.73;7.82;;;;;;;;;;6258060;22;20740;-65
2023/10/14 13:09:27;;;;;;;10.53;7.23;;;;;;;;;;6259508;22;20492;-66
2023/10/14 13:11:55;;;;;;;12.00;7.50;;;;;;;;;;6256621;22;20009;-66
2023/10/14 13:14:27;;;;;;;13.23;8.05;;;;;;;;;;6285547;22;20069;-66
2023/10/14 13:16:53;;;;;;;11.95;7.65;;;;;;;;;;6257710;22;20141;-66
2023/10/14 13:19:18;;;;;;;11.77;7.25;;;;;;;;;;6283661;22;20003;-66
2023/10/14 13:21:44;;;;;;;12.83;7.43;;;;;;;;;;6258803;22;20010;-65
2023/10/14 13:24:12;;;;;;;12.98;8.52;;;;;;;;;;6284192;22;20010;-65
2023/10/14 13:26:40;;;;;;;10.25;7.60;;;;;;;;;;6284383;22;19999;-65
2023/10/14 13:29:06;;;;;;;11.95;8.57;;;;;;;;;;6254116;22;20003;-66
2023/10/14 13:31:31;;;;;;;10.77;7.88;;;;;;;;;;6258712;22;20050;-65
2023/10/14 13:34:00;;;;;;;12.23;8.10;;;;;;;;;;6256510;22;20029;-65
2023/10/14 13:36:26;;;;;;;10.45;7.65;;;;;;;;;;6264838;22;20232;-66
2023/10/14 13:38:52;;;;;;;11.23;8.20;;;;;;;;;;6262489;22;20000;-65
2023/10/14 13:41:17;;;;;;;11.27;7.53;;;;;;;;;;6264107;22;20351;-66
2023/10/14 13:43:43;;;;;;;12.23;7.55;;;;;;;;;;6260679;22;20047;-65
2023/10/14 13:46:08;;;;;;;12.48;8.40;;;;;;;;;;6291214;22;20443;-65
2023/10/14 13:48:34;;;;;;;13.43;7.80;;;;;;;;;;6263703;22;19995;-65
2023/10/14 13:51:00;;;;;;;11.30;7.73;;;;;;;;;;6289760;22;20940;-65
2023/10/14 13:53:26;;;;;;;13.00;8.05;;;;;;;;;;6292577;22;20000;-65
2023/10/14 13:55:54;;;;;;;14.15;8.32;;;;;;;;;;6261771;22;19999;-66
2023/10/14 13:58:21;;;;;;;12.88;7.65;;;;;;;;;;6291990;22;19999;-65
2023/10/14 14:00:49;;;;;;;12.10;7.88;;;;;;;;;;6262425;22;20313;-65
2023/10/14 14:03:15;;;;;;;13.10;8.25;;;;;;;;;;6289472;22;20078;-66
2023/10/14 14:05:41;;;;;;;15.15;8.27;;;;;;;;;;6265269;22;20099;-66
2023/10/14 14:08:07;;;;;;;13.60;7.93;;;;;;;;;;6261916;22;20004;-67
2023/10/14 14:10:36;;;;;;;12.38;8.32;;;;;;;;;;6262625;22;20549;-65
2023/10/14 14:13:02;;;;;;;13.30;8.20;;;;;;;;;;6260885;22;20086;-66
2023/10/14 14:15:28;;;;;;;13.52;8.93;;;;;;;;;;6290431;22;20007;-65
2023/10/14 14:17:56;;;;;;;12.48;8.60;;;;;;;;;;6262834;22;20381;-65
2023/10/14 14:20:22;;;;;;;13.38;8.82;;;;;;;;;;6289763;22;20002;-63
2023/10/14 14:22:47;;;;;;;12.98;9.02;;;;;;;;;;6291865;22;20006;-65
2023/10/14 14:25:13;;;;;;;12.70;8.63;;;;;;;;;;6261827;22;20007;-65
2023/10/14 14:27:39;;;;;;;12.73;9.13;;;;;;;;;;6291244;22;20090;-66
2023/10/14 14:30:08;;;;;;;11.20;8.82;;;;;;;;;;6289510;22;20858;-64
2023/10/14 14:32:39;;;;;;;12.95;8.98;;;;;;;;;;6290346;22;20035;-65
2023/10/14 14:35:08;;;;;;;15.48;8.73;;;;;;;;;;6290829;22;20003;-66
2023/10/14 14:37:37;;;;;;;14.90;8.60;;;;;;;;;;6290253;22;19999;-65
2023/10/14 14:40:11;;;;;;;14.50;9.35;;;;;;;;;;6291100;22;19995;-65
2023/10/14 14:42:37;;;;;;;12.38;8.95;;;;;;;;;;6289228;22;19995;-66
2023/10/14 14:45:06;;;;;;;12.45;8.20;;;;;;;;;;6263099;22;20011;-66
2023/10/14 14:47:31;;;;;;;13.05;8.60;;;;;;;;;;6291082;22;20022;-65
2023/10/14 14:49:57;;;;;;;11.70;8.40;;;;;;;;;;6289471;22;20067;-65
2023/10/14 14:52:26;;;;;;;14.63;8.48;;;;;;;;;;6263398;22;20009;-65
2023/10/14 14:54:53;;;;;;;;;;;;;;;;;;6262194;22;20905;-65